Startpagina
METAR-TAF:

METAR-TAF

Vliegvelden :

Tarawa, Kiribati

Bonriki International Airport

breedte: 01-21N, lengte: 172-55E, hoogte: 2 m

Actueel weer

Dit bericht is 37 minuten geleden gemaakt, om 07:00 UTC
Wind 9 kt uit het oostzuidoosten
Temperatuur 29°C
Vochtigheid 74%
Druk 1006 hPa
Zicht 10 km of meer
Weinig wolken op 2000 ft

METAR: NGTA 240700Z 12009KT 9999 FEW020 29/24 Q1006

Tijdstip: 21:37 (07:37 UTC)

Verwachting

Dit bericht is 2 uur en het 19 minuten geleden gemaakt, om 05:18 UTC
Verwachting geldig van 24 om 06 UTC tot 25 om 06 UTC
Wind 8 kt uit het oosten
Zicht 10 km of meer
Verspreide wolken op 2000 ft

TAF: NGTA 240518Z 2406/2506 08008KT 9999 SCT020

Waarnemingen en weersverwachtingen van meer dan 4000 vliegvelden (METAR en TAF).

De beschikbare stations zijn de gele en rode punten op de kaart.

Ga met uw muis naar het station om de naam te zien.

Klik dan om waarnemingen en weersverwachtingen te zien.

kaart wijzigen: klik op de groene knoppen met een zwart kruis om in te zoomen, op de groene knop met een streepje om uit te zoomen of op de groene pijlen voor aangrenzende kaarten.


METAR-TAF: